createdAt,value
2024-02-07T00:01:27.644Z,99965.88
2024-02-07T00:04:14.985Z,99959.31
2024-02-07T00:07:02.343Z,99953.59
2024-02-07T00:09:49.570Z,99952.47
2024-02-07T00:12:36.793Z,99956.75
2024-02-07T00:15:24.645Z,99947.16
2024-02-07T00:18:11.825Z,99953.31
2024-02-07T00:20:59.214Z,99968.72
2024-02-07T00:23:46.505Z,99956.44
2024-02-07T00:26:37.133Z,99944.75
2024-02-07T00:29:24.378Z,99952.03
2024-02-07T00:32:11.584Z,99958.88
2024-02-07T00:34:58.874Z,99964.41
2024-02-07T00:37:46.054Z,99993.81
2024-02-07T00:40:34.443Z,99995.94
2024-02-07T00:43:21.766Z,100005.38
2024-02-07T00:46:08.984Z,100006.41
2024-02-07T00:48:57.686Z,100016.66
2024-02-07T00:51:45.141Z,100023.22
2024-02-07T00:54:32.392Z,99973.28
2024-02-07T00:57:19.566Z,99989.50
2024-02-07T01:00:08.657Z,100041.47
2024-02-07T01:02:56.443Z,99977.41
2024-02-07T01:05:43.746Z,99967.72
2024-02-07T01:08:30.956Z,100006.75
2024-02-07T01:11:18.093Z,100039.31
2024-02-07T01:14:05.300Z,100047.00
2024-02-07T01:16:52.506Z,100002.63
2024-02-07T01:19:40.207Z,100005.34
2024-02-07T01:22:27.455Z,99978.78
2024-02-07T01:25:14.872Z,100001.56
2024-02-07T01:28:02.057Z,100002.03
2024-02-07T01:30:49.249Z,100013.81
2024-02-07T01:33:36.919Z,99986.75
2024-02-07T01:36:25.578Z,99994.94
2024-02-07T01:39:12.782Z,99977.28
2024-02-07T01:42:00.539Z,99990.53
2024-02-07T01:44:48.004Z,100012.63
2024-02-07T01:47:35.276Z,100003.03
2024-02-07T01:50:23.073Z,100025.59
2024-02-07T01:53:12.350Z,100028.53
2024-02-07T01:56:01.765Z,100025.34
2024-02-07T01:58:49.385Z,100011.84
2024-02-07T02:01:40.183Z,100028.50
2024-02-07T02:04:28.126Z,100029.34
2024-02-07T02:07:15.547Z,100017.66
2024-02-07T02:10:02.874Z,100019.63
2024-02-07T02:12:50.849Z,100023.75
2024-02-07T02:15:38.085Z,100027.66
2024-02-07T02:18:25.332Z,100015.16
2024-02-07T02:21:20.603Z,100016.16
2024-02-07T02:24:45.262Z,100026.19
2024-02-07T02:28:32.480Z,100022.97
2024-02-07T02:31:21.381Z,100026.88
2024-02-07T02:34:09.035Z,100013.66
2024-02-07T02:36:56.755Z,100010.94
2024-02-07T02:39:44.322Z,100025.78
2024-02-07T02:42:31.483Z,100030.31
2024-02-07T02:45:18.912Z,100037.88
2024-02-07T02:48:08.732Z,100052.19
2024-02-07T02:50:57.142Z,100048.25
2024-02-07T02:53:45.129Z,100056.91
2024-02-07T02:56:32.572Z,100044.66
2024-02-07T02:59:21.764Z,100059.31
2024-02-07T03:02:11.790Z,100061.03
2024-02-07T03:05:01.998Z,100068.59
2024-02-07T03:08:06.957Z,100073.22
2024-02-07T03:10:54.984Z,100072.47
2024-02-07T03:13:42.306Z,100068.19
2024-02-07T03:16:30.206Z,100057.75
2024-02-07T03:19:17.652Z,100078.97
2024-02-07T03:22:04.981Z,100058.50
2024-02-07T03:24:57.220Z,100065.09
2024-02-07T03:27:52.071Z,100073.38
2024-02-07T03:30:39.342Z,100059.41
2024-02-07T03:33:26.733Z,100072.97
2024-02-07T03:36:14.211Z,100085.22
2024-02-07T03:39:01.615Z,100057.03
2024-02-07T03:41:49.597Z,100077.50
2024-02-07T03:44:38.243Z,100075.22
2024-02-07T03:47:26.216Z,100085.03
2024-02-07T03:50:18.081Z,100083.94
2024-02-07T03:53:06.280Z,100091.50
2024-02-07T03:55:53.571Z,100090.19
2024-02-07T03:58:42.498Z,100090.19
2024-02-07T04:01:31.123Z,100095.59
2024-02-07T04:04:21.635Z,100093.88
2024-02-07T04:07:09.155Z,100090.84
2024-02-07T04:09:56.493Z,100074.50
2024-02-07T04:12:43.568Z,100104.19
2024-02-07T04:15:49.160Z,100076.25
2024-02-07T04:18:55.111Z,100091.09
2024-02-07T04:22:00.963Z,100093.03
2024-02-07T04:25:06.922Z,100091.31
2024-02-07T04:28:12.790Z,100091.09
2024-02-07T04:31:18.721Z,100087.66
2024-02-07T04:34:24.322Z,100098.81
2024-02-07T04:37:29.954Z,100099.47
2024-02-07T04:40:35.778Z,100109.16
2024-02-07T04:43:41.605Z,100118.19
2024-02-07T04:46:47.570Z,100122.50
2024-02-07T04:49:53.415Z,100121.63
2024-02-07T04:52:59.235Z,100126.38
2024-02-07T04:56:05.035Z,100130.69
2024-02-07T04:59:11.145Z,100125.72
2024-02-07T05:02:16.793Z,100116.91
2024-02-07T05:05:22.693Z,100127.34
2024-02-07T05:08:28.305Z,100134.44
2024-02-07T05:11:34.265Z,100139.28
2024-02-07T05:14:40.025Z,100126.56
2024-02-07T05:17:27.332Z,100125.81
2024-02-07T05:20:14.799Z,100119.94
2024-02-07T05:23:02.108Z,100116.06
2024-02-07T05:25:49.624Z,100127.84
2024-02-07T05:28:38.223Z,100123.13
2024-02-07T05:31:25.962Z,100131.44
2024-02-07T05:34:13.509Z,100133.88
2024-02-07T05:37:02.715Z,100134.41
2024-02-07T05:39:49.846Z,100143.34
2024-02-07T05:42:37.019Z,100140.38
2024-02-07T05:45:24.226Z,100134.97
2024-02-07T05:48:11.471Z,100136.72
2024-02-07T05:50:58.643Z,100144.00
2024-02-07T05:53:45.909Z,100137.22
2024-02-07T05:56:33.143Z,100145.91
2024-02-07T05:59:21.529Z,100146.81
2024-02-07T06:02:08.772Z,100144.00
2024-02-07T06:04:58.565Z,100143.34
2024-02-07T06:07:46.506Z,100161.88
2024-02-07T06:10:35.420Z,100159.63
2024-02-07T06:13:23.042Z,100176.31
2024-02-07T06:16:10.281Z,100156.91
2024-02-07T06:18:57.970Z,100185.31
2024-02-07T06:21:45.160Z,100182.09
2024-02-07T06:24:33.117Z,100182.56
2024-02-07T06:27:20.312Z,100191.50
2024-02-07T06:30:08.294Z,100185.31
2024-02-07T06:32:55.581Z,100192.66
2024-02-07T06:35:43.569Z,100165.94
2024-02-07T06:38:30.842Z,100199.97
2024-02-07T06:41:18.032Z,100195.66
2024-02-07T06:44:05.654Z,100187.47
2024-02-07T06:46:53.039Z,100192.84
2024-02-07T06:49:41.303Z,100184.69
2024-02-07T06:52:28.652Z,100183.59
2024-02-07T06:55:16.007Z,100188.97
2024-02-07T06:58:03.290Z,100183.53
2024-02-07T07:00:50.621Z,100193.72
2024-02-07T07:03:37.903Z,100181.47
2024-02-07T07:06:25.187Z,100202.78
2024-02-07T07:09:12.664Z,100193.97
2024-02-07T07:11:59.809Z,100199.56
2024-02-07T07:14:47.239Z,100203.00
2024-02-07T07:17:34.438Z,100209.13
2024-02-07T07:20:21.712Z,100211.06
2024-02-07T07:23:15.687Z,100213.56
2024-02-07T07:26:04.311Z,100213.78
2024-02-07T07:28:55.454Z,100215.59
2024-02-07T07:31:42.789Z,100214.84
2024-02-07T07:34:30.052Z,100227.13
2024-02-07T07:37:19.292Z,100231.66
2024-02-07T07:40:07.422Z,100228.59
2024-02-07T07:42:54.628Z,100248.00
2024-02-07T07:45:41.901Z,100241.94
2024-02-07T07:48:29.163Z,100240.44
2024-02-07T07:51:21.447Z,100233.13
2024-02-07T07:54:08.817Z,100234.66
2024-02-07T07:56:56.089Z,100239.16
2024-02-07T07:59:43.244Z,100268.75
2024-02-07T08:02:32.078Z,100270.50
2024-02-07T08:05:19.474Z,100261.34
2024-02-07T08:08:08.717Z,100260.81
2024-02-07T08:10:56.183Z,100263.31
2024-02-07T08:13:43.739Z,100250.88
2024-02-07T08:16:31.044Z,100249.91
2024-02-07T08:19:18.400Z,100267.78
2024-02-07T08:22:05.630Z,100277.06
2024-02-07T08:24:53.467Z,100268.88
2024-02-07T08:27:40.646Z,100268.25
2024-02-07T08:30:27.897Z,100261.16
2024-02-07T08:33:15.353Z,100264.16
2024-02-07T08:36:03.695Z,100265.66
2024-02-07T08:38:50.963Z,100272.75
2024-02-07T08:41:39.462Z,100270.81
2024-02-07T08:44:26.696Z,100280.59
2024-02-07T08:47:14.069Z,100275.09
2024-02-07T08:50:01.225Z,100272.72
2024-02-07T08:52:48.562Z,100277.03
2024-02-07T08:55:35.866Z,100282.63
2024-02-07T08:58:23.103Z,100295.53
2024-02-07T09:01:10.467Z,100284.88
2024-02-07T09:03:57.777Z,100295.94
2024-02-07T09:06:46.584Z,100295.72
2024-02-07T09:09:33.836Z,100309.72
2024-02-07T09:12:20.952Z,100302.38
2024-02-07T09:15:08.605Z,100307.56
2024-02-07T09:17:55.824Z,100314.66
2024-02-07T09:20:42.994Z,100301.06
2024-02-07T09:23:30.176Z,100294.59
2024-02-07T09:26:17.321Z,100288.44
2024-02-07T09:29:04.685Z,100308.59
2024-02-07T09:31:52.020Z,100307.53
2024-02-07T09:34:45.854Z,100295.47
2024-02-07T09:37:33.218Z,100322.59
2024-02-07T09:40:24.758Z,100330.47
2024-02-07T09:43:12.140Z,100322.72
2024-02-07T09:46:00.823Z,100333.91
2024-02-07T09:48:51.256Z,100339.09
2024-02-07T09:51:42.486Z,100349.41
2024-02-07T09:54:29.937Z,100340.84
2024-02-07T09:57:19.118Z,100344.94
2024-02-07T10:00:08.695Z,100337.94
2024-02-07T10:02:57.222Z,100336.50
2024-02-07T10:05:52.115Z,100311.78
2024-02-07T10:08:41.210Z,100307.38
2024-02-07T10:11:31.253Z,100328.47
2024-02-07T10:14:19.043Z,100317.22
2024-02-07T10:17:06.683Z,100314.59
2024-02-07T10:19:54.731Z,100312.16
2024-02-07T10:22:43.053Z,100321.50
2024-02-07T10:25:30.546Z,100307.31
2024-02-07T10:28:18.436Z,100296.03
2024-02-07T10:31:06.306Z,100301.22
2024-02-07T10:33:55.638Z,100299.97
2024-02-07T10:36:42.974Z,100317.63
2024-02-07T10:39:30.356Z,100319.28
2024-02-07T10:42:18.520Z,100314.63
2024-02-07T10:45:11.710Z,100286.03
2024-02-07T10:47:59.067Z,100305.09
2024-02-07T10:50:46.962Z,100318.22
2024-02-07T10:53:34.602Z,100316.50
2024-02-07T10:56:23.434Z,100304.22
2024-02-07T10:59:12.966Z,100294.25
2024-02-07T11:02:01.440Z,100290.84
2024-02-07T11:04:51.623Z,100283.06
2024-02-07T11:07:39.315Z,100290.47
2024-02-07T11:10:26.830Z,100294.41
2024-02-07T11:13:14.537Z,100300.66
2024-02-07T11:16:05.455Z,100306.91
2024-02-07T11:18:54.822Z,100316.38
2024-02-07T11:21:43.995Z,100315.03
2024-02-07T11:24:31.973Z,100314.53
2024-02-07T11:27:19.415Z,100314.63
2024-02-07T11:30:12.052Z,100316.97
2024-02-07T11:33:00.010Z,100302.22
2024-02-07T11:35:47.536Z,100298.38
2024-02-07T11:38:38.781Z,100287.44
2024-02-07T11:41:27.317Z,100282.28
2024-02-07T11:44:18.493Z,100280.78
2024-02-07T11:47:05.958Z,100292.81
2024-02-07T11:50:13.272Z,100292.06
2024-02-07T11:53:03.206Z,100291.78
2024-02-07T11:55:50.766Z,100298.69
2024-02-07T11:58:39.078Z,100299.16
2024-02-07T12:01:28.662Z,100302.81
2024-02-07T12:04:20.405Z,100291.44
2024-02-07T12:07:10.492Z,100293.72
2024-02-07T12:09:57.819Z,100284.44
2024-02-07T12:12:45.224Z,100291.53
2024-02-07T12:15:36.774Z,100293.25
2024-02-07T12:18:24.137Z,100293.59
2024-02-07T12:21:11.647Z,100293.38
2024-02-07T12:23:59.132Z,100286.00
2024-02-07T12:26:46.384Z,100283.69
2024-02-07T12:29:33.629Z,100283.56
2024-02-07T12:32:21.804Z,100290.81
2024-02-07T12:35:09.170Z,100285.94
2024-02-07T12:38:01.253Z,100277.69
2024-02-07T12:40:53.984Z,100272.78
2024-02-07T12:43:41.908Z,100262.13
2024-02-07T12:46:29.117Z,100259.75
2024-02-07T12:49:16.493Z,100250.41
2024-02-07T12:52:04.696Z,100257.66
2024-02-07T12:54:52.109Z,100253.34
2024-02-07T12:57:39.349Z,100241.94
2024-02-07T13:00:26.574Z,100242.47
2024-02-07T13:03:14.056Z,100249.28
2024-02-07T13:06:01.487Z,100249.88
2024-02-07T13:08:52.515Z,100259.97
2024-02-07T13:11:39.851Z,100255.53
2024-02-07T13:14:27.040Z,100253.84
2024-02-07T13:17:16.110Z,100237.78
2024-02-07T13:20:07.199Z,100243.06
2024-02-07T13:22:54.554Z,100248.13
2024-02-07T13:25:41.873Z,100234.16
2024-02-07T13:28:29.206Z,100247.41
2024-02-07T13:31:17.016Z,100238.03
2024-02-07T13:34:06.263Z,100235.59
2024-02-07T13:36:53.484Z,100247.41
2024-02-07T13:39:40.689Z,100250.13
2024-02-07T13:42:27.967Z,100235.88
2024-02-07T13:45:16.139Z,100243.78
2024-02-07T13:48:03.842Z,100239.59
2024-02-07T13:50:51.324Z,100241.22
2024-02-07T13:53:38.575Z,100246.03
2024-02-07T13:56:25.929Z,100242.13
2024-02-07T13:59:13.237Z,100238.69
2024-02-07T14:02:02.391Z,100255.03
2024-02-07T14:04:49.949Z,100226.22
2024-02-07T14:07:37.224Z,100236.09
2024-02-07T14:10:24.562Z,100224.50
2024-02-07T14:13:11.870Z,100223.66
2024-02-07T14:15:59.238Z,100218.56
2024-02-07T14:18:47.260Z,100208.00
2024-02-07T14:21:34.568Z,100202.84
2024-02-07T14:24:21.869Z,100190.50
2024-02-07T14:27:12.459Z,100194.94
2024-02-07T14:29:59.833Z,100176.97
2024-02-07T14:32:47.330Z,100176.44
2024-02-07T14:35:34.792Z,100176.44
2024-02-07T14:38:23.862Z,100177.41
2024-02-07T14:41:11.233Z,100164.44
2024-02-07T14:43:58.547Z,100171.84
2024-02-07T14:46:45.919Z,100165.22
2024-02-07T14:49:33.305Z,100175.53
2024-02-07T14:52:21.745Z,100163.88
2024-02-07T14:55:11.544Z,100165.00
2024-02-07T14:57:59.078Z,100164.41
2024-02-07T15:00:46.289Z,100168.09
2024-02-07T15:03:33.753Z,100161.63
2024-02-07T15:06:21.393Z,100155.41
2024-02-07T15:09:08.685Z,100175.84
2024-02-07T15:11:56.924Z,100171.22
2024-02-07T15:14:44.168Z,100168.53
2024-02-07T15:17:31.349Z,100168.59
2024-02-07T15:20:18.682Z,100157.53
2024-02-07T15:23:06.174Z,100168.63
2024-02-07T15:25:53.514Z,100171.06
2024-02-07T15:28:40.855Z,100172.81
2024-02-07T15:31:28.021Z,100164.22
2024-02-07T15:34:15.507Z,100153.78
2024-02-07T15:37:03.025Z,100152.19
2024-02-07T15:39:50.232Z,100155.84
2024-02-07T15:42:37.564Z,100158.09
2024-02-07T15:45:24.951Z,100153.91
2024-02-07T15:48:13.098Z,100152.22
2024-02-07T15:51:00.625Z,100150.34
2024-02-07T15:53:47.939Z,100148.91
2024-02-07T15:56:36.730Z,100147.91
2024-02-07T15:59:23.874Z,100144.34
2024-02-07T16:02:11.132Z,100139.19
2024-02-07T16:04:58.690Z,100132.59
2024-02-07T16:07:46.155Z,100117.09
2024-02-07T16:10:33.675Z,100124.75
2024-02-07T16:13:20.877Z,100136.50
2024-02-07T16:16:08.076Z,100123.53
2024-02-07T16:18:55.952Z,100134.66
2024-02-07T16:21:43.170Z,100119.94
2024-02-07T16:24:32.563Z,100117.59
2024-02-07T16:27:21.810Z,100110.75
2024-02-07T16:30:10.710Z,100110.97
2024-02-07T16:32:59.221Z,100106.03
2024-02-07T16:35:46.603Z,100112.81
2024-02-07T16:38:33.857Z,100110.69
2024-02-07T16:41:21.094Z,100108.50
2024-02-07T16:44:09.096Z,100112.44
2024-02-07T16:46:56.884Z,100101.88
2024-02-07T16:49:44.324Z,100103.84
2024-02-07T16:52:31.496Z,100098.66
2024-02-07T16:55:18.755Z,100106.03
2024-02-07T16:58:07.361Z,100108.72
2024-02-07T17:00:54.606Z,100111.66
2024-02-07T17:03:41.853Z,100108.22
2024-02-07T17:06:30.013Z,100103.31
2024-02-07T17:09:17.227Z,100115.56
2024-02-07T17:12:05.009Z,100097.06
2024-02-07T17:14:52.195Z,100090.56
2024-02-07T17:17:39.485Z,100087.38
2024-02-07T17:20:26.847Z,100095.13
2024-02-07T17:23:14.195Z,100090.78
2024-02-07T17:26:01.712Z,100073.38
2024-02-07T17:28:49.214Z,100092.25
2024-02-07T17:31:36.566Z,100100.34
2024-02-07T17:34:23.982Z,100104.03
2024-02-07T17:37:11.208Z,100091.03
2024-02-07T17:39:58.461Z,100104.25
2024-02-07T17:42:46.707Z,100090.03
2024-02-07T17:45:33.933Z,100109.44
2024-02-07T17:48:21.218Z,100115.56
2024-02-07T17:51:09.028Z,100108.56
2024-02-07T17:53:56.645Z,100109.66
2024-02-07T17:56:44.037Z,100124.28
2024-02-07T17:59:31.269Z,100127.94
2024-02-07T18:02:18.584Z,100120.22
2024-02-07T18:05:06.631Z,100120.22
2024-02-07T18:07:56.908Z,100114.81
2024-02-07T18:10:44.406Z,100113.97
2024-02-07T18:13:33.088Z,100111.38
2024-02-07T18:16:21.585Z,100111.84
2024-02-07T18:19:08.980Z,100111.84
2024-02-07T18:21:56.257Z,100117.50
2024-02-07T18:24:43.555Z,100109.50
2024-02-07T18:27:30.702Z,100100.81
2024-02-07T18:30:19.785Z,100101.16
2024-02-07T18:33:08.719Z,100093.75
2024-02-07T18:35:55.967Z,100097.34
2024-02-07T18:38:44.439Z,100087.88
2024-02-07T18:41:31.833Z,100089.81
2024-02-07T18:44:20.401Z,100087.72
2024-02-07T18:47:07.694Z,100096.78
2024-02-07T18:49:55.951Z,100088.19
2024-02-07T18:52:43.294Z,100091.00
2024-02-07T18:55:30.769Z,100076.63
2024-02-07T18:58:19.497Z,100078.34
2024-02-07T19:01:06.915Z,100086.41
2024-02-07T19:03:55.056Z,100070.94
2024-02-07T19:06:42.758Z,100079.03
2024-02-07T19:09:31.026Z,100095.53
2024-02-07T19:12:18.605Z,100092.22
2024-02-07T19:15:06.746Z,100095.25
2024-02-07T19:17:54.547Z,100100.00
2024-02-07T19:20:43.237Z,100097.50
2024-02-07T19:23:30.593Z,100091.63
2024-02-07T19:26:17.803Z,100097.44
2024-02-07T19:29:05.096Z,100089.72
2024-02-07T19:31:52.544Z,100083.72
2024-02-07T19:34:39.905Z,100080.47
2024-02-07T19:37:28.718Z,100087.06
2024-02-07T19:40:16.167Z,100077.91
2024-02-07T19:43:03.804Z,100072.22
2024-02-07T19:45:51.083Z,100090.06
2024-02-07T19:48:38.366Z,100080.50
2024-02-07T19:51:25.736Z,100079.03
2024-02-07T19:54:12.965Z,100075.59
2024-02-07T19:57:00.484Z,100078.69
2024-02-07T19:59:47.691Z,100069.34
2024-02-07T20:02:36.006Z,100071.28
2024-02-07T20:05:25.468Z,100075.16
2024-02-07T20:08:13.917Z,100070.25
2024-02-07T20:11:01.367Z,100080.25
2024-02-07T20:13:49.112Z,100068.31
2024-02-07T20:16:36.613Z,100069.06
2024-02-07T20:19:24.629Z,100076.03
2024-02-07T20:22:12.006Z,100072.38
2024-02-07T20:24:59.231Z,100070.91
2024-02-07T20:27:46.485Z,100065.63
2024-02-07T20:30:33.685Z,100064.00
2024-02-07T20:33:20.920Z,100067.88
2024-02-07T20:36:08.655Z,100064.44
2024-02-07T20:38:56.191Z,100067.22
2024-02-07T20:41:45.405Z,100064.00
2024-02-07T20:44:32.876Z,100070.44
2024-02-07T20:47:20.021Z,100072.19
2024-02-07T20:50:08.136Z,100074.09
2024-02-07T20:52:56.553Z,100056.91
2024-02-07T20:55:45.611Z,100067.66
2024-02-07T20:58:33.048Z,100078.41
2024-02-07T21:01:20.879Z,100076.25
2024-02-07T21:04:08.312Z,100077.50
2024-02-07T21:06:55.731Z,100078.38
2024-02-07T21:09:43.015Z,100082.84
2024-02-07T21:12:30.192Z,100086.63
2024-02-07T21:15:20.073Z,100079.41
2024-02-07T21:18:07.664Z,100075.97
2024-02-07T21:20:54.862Z,100078.00
2024-02-07T21:23:42.898Z,100084.47
2024-02-07T21:26:30.038Z,100082.06
2024-02-07T21:29:18.760Z,100079.38
2024-02-07T21:32:10.632Z,100077.88
2024-02-07T21:34:58.080Z,100065.91
2024-02-07T21:37:45.912Z,100071.41
2024-02-07T21:40:33.190Z,100069.03
2024-02-07T21:43:20.567Z,100058.91
2024-02-07T21:46:09.028Z,100070.31
2024-02-07T21:48:56.264Z,100069.53
2024-02-07T21:51:43.582Z,100075.00
2024-02-07T21:54:30.853Z,100083.34
2024-02-07T21:57:18.920Z,100080.13
2024-02-07T22:00:07.343Z,100074.97
2024-02-07T22:02:54.618Z,100073.34
2024-02-07T22:05:41.906Z,100073.63
2024-02-07T22:08:29.185Z,100064.34
2024-02-07T22:11:16.825Z,100064.25
2024-02-07T22:14:07.131Z,100064.78
2024-02-07T22:16:54.458Z,100053.56
2024-02-07T22:19:43.445Z,100046.03
2024-02-07T22:22:31.265Z,100055.69
2024-02-07T22:25:18.572Z,100052.25
2024-02-07T22:28:07.142Z,100041.91
2024-02-07T22:30:54.410Z,100056.84
2024-02-07T22:33:41.556Z,100059.75
2024-02-07T22:36:28.802Z,100059.34
2024-02-07T22:39:16.365Z,100062.78
2024-02-07T22:42:06.258Z,100058.25
2024-02-07T22:44:53.486Z,100067.75
2024-02-07T22:47:40.955Z,100050.88
2024-02-07T22:50:28.343Z,100061.78
2024-02-07T22:53:15.603Z,100053.63
2024-02-07T22:56:03.296Z,100055.81
2024-02-07T22:58:50.595Z,100045.06
2024-02-07T23:01:37.836Z,100049.19
2024-02-07T23:04:25.116Z,100042.94
2024-02-07T23:07:12.716Z,100049.63
2024-02-07T23:09:59.856Z,100047.03
2024-02-07T23:12:46.997Z,100045.59
2024-02-07T23:15:34.143Z,100041.72
2024-02-07T23:18:21.726Z,100043.47
2024-02-07T23:21:08.947Z,100040.22
2024-02-07T23:23:56.112Z,100058.47
2024-02-07T23:26:45.972Z,100064.94
2024-02-07T23:29:33.403Z,100053.63
2024-02-07T23:32:20.735Z,100053.53
2024-02-07T23:35:08.560Z,100056.88
2024-02-07T23:37:55.796Z,100037.53
2024-02-07T23:40:43.188Z,100048.16
2024-02-07T23:43:30.411Z,100056.50
2024-02-07T23:46:17.590Z,100054.06
2024-02-07T23:49:04.924Z,100044.47
2024-02-07T23:51:53.256Z,100038.16
2024-02-07T23:54:40.414Z,100029.63
2024-02-07T23:57:27.797Z,100037.59
